sensor_id;sensor_type;location;lat;lon;timestamp;temperature;humidity
21037;DHT22;10677;50.942;4.028;2024-02-26T00:01:52;8.40;99.90
21037;DHT22;10677;50.942;4.028;2024-02-26T00:04:18;8.40;99.90
21037;DHT22;10677;50.942;4.028;2024-02-26T00:06:43;8.60;99.90
21037;DHT22;10677;50.942;4.028;2024-02-26T00:09:09;8.70;99.90
21037;DHT22;10677;50.942;4.028;2024-02-26T00:11:38;8.80;99.90
21037;DHT22;10677;50.942;4.028;2024-02-26T00:14:04;8.80;99.90
21037;DHT22;10677;50.942;4.028;2024-02-26T00:16:30;8.70;99.90
21037;DHT22;10677;50.942;4.028;2024-02-26T00:18:55;8.80;99.90
21037;DHT22;10677;50.942;4.028;2024-02-26T00:21:21;8.60;99.90
21037;DHT22;10677;50.942;4.028;2024-02-26T00:23:47;8.60;99.90
21037;DHT22;10677;50.942;4.028;2024-02-26T00:26:12;8.60;99.90
21037;DHT22;10677;50.942;4.028;2024-02-26T00:28:38;8.40;99.90
21037;DHT22;10677;50.942;4.028;2024-02-26T00:31:04;8.40;99.90
21037;DHT22;10677;50.942;4.028;2024-02-26T00:33:30;8.40;99.90
21037;DHT22;10677;50.942;4.028;2024-02-26T00:35:56;8.30;99.90
21037;DHT22;10677;50.942;4.028;2024-02-26T00:38:21;8.50;99.90
21037;DHT22;10677;50.942;4.028;2024-02-26T00:40:47;8.50;99.90
21037;DHT22;10677;50.942;4.028;2024-02-26T00:43:12;8.40;99.90
21037;DHT22;10677;50.942;4.028;2024-02-26T00:45:39;8.40;99.90
21037;DHT22;10677;50.942;4.028;2024-02-26T00:48:05;8.60;99.90
21037;DHT22;10677;50.942;4.028;2024-02-26T00:50:31;8.50;99.90
21037;DHT22;10677;50.942;4.028;2024-02-26T00:52:57;8.50;99.90
21037;DHT22;10677;50.942;4.028;2024-02-26T00:55:23;8.60;99.90
21037;DHT22;10677;50.942;4.028;2024-02-26T00:57:48;8.40;99.90
21037;DHT22;10677;50.942;4.028;2024-02-26T01:00:15;8.50;99.90
21037;DHT22;10677;50.942;4.028;2024-02-26T01:02:41;8.50;99.90
21037;DHT22;10677;50.942;4.028;2024-02-26T01:05:08;8.60;99.90
21037;DHT22;10677;50.942;4.028;2024-02-26T01:07:36;8.50;99.90
21037;DHT22;10677;50.942;4.028;2024-02-26T01:10:02;8.50;99.90
21037;DHT22;10677;50.942;4.028;2024-02-26T01:12:28;8.50;99.90
21037;DHT22;10677;50.942;4.028;2024-02-26T01:14:54;8.30;99.90
21037;DHT22;10677;50.942;4.028;2024-02-26T01:17:20;8.20;99.90
21037;DHT22;10677;50.942;4.028;2024-02-26T01:19:45;8.20;99.90
21037;DHT22;10677;50.942;4.028;2024-02-26T01:22:11;8.20;99.90
21037;DHT22;10677;50.942;4.028;2024-02-26T01:24:37;8.20;99.90
21037;DHT22;10677;50.942;4.028;2024-02-26T01:27:02;8.30;99.90
21037;DHT22;10677;50.942;4.028;2024-02-26T01:29:28;8.20;99.90
21037;DHT22;10677;50.942;4.028;2024-02-26T01:31:54;8.10;99.90
21037;DHT22;10677;50.942;4.028;2024-02-26T01:34:20;8.00;99.90
21037;DHT22;10677;50.942;4.028;2024-02-26T01:36:46;7.90;99.90
21037;DHT22;10677;50.942;4.028;2024-02-26T01:39:11;7.80;99.90
21037;DHT22;10677;50.942;4.028;2024-02-26T01:41:38;7.90;99.90
21037;DHT22;10677;50.942;4.028;2024-02-26T01:44:04;7.80;99.90
21037;DHT22;10677;50.942;4.028;2024-02-26T01:46:31;7.90;99.90
21037;DHT22;10677;50.942;4.028;2024-02-26T01:48:57;7.80;99.90
21037;DHT22;10677;50.942;4.028;2024-02-26T01:51:23;7.90;99.90
21037;DHT22;10677;50.942;4.028;2024-02-26T01:53:49;8.00;99.90
21037;DHT22;10677;50.942;4.028;2024-02-26T01:56:17;8.10;99.90
21037;DHT22;10677;50.942;4.028;2024-02-26T01:58:44;8.00;99.90
21037;DHT22;10677;50.942;4.028;2024-02-26T02:01:10;8.00;99.90
21037;DHT22;10677;50.942;4.028;2024-02-26T02:03:37;8.10;99.90
21037;DHT22;10677;50.942;4.028;2024-02-26T02:06:03;8.30;99.90
21037;DHT22;10677;50.942;4.028;2024-02-26T02:08:29;8.20;99.90
21037;DHT22;10677;50.942;4.028;2024-02-26T02:10:55;8.10;99.90
21037;DHT22;10677;50.942;4.028;2024-02-26T02:13:21;8.00;99.90
21037;DHT22;10677;50.942;4.028;2024-02-26T02:15:47;7.90;99.90
21037;DHT22;10677;50.942;4.028;2024-02-26T02:18:13;7.90;99.90
21037;DHT22;10677;50.942;4.028;2024-02-26T02:20:38;7.90;99.90
21037;DHT22;10677;50.942;4.028;2024-02-26T02:23:04;7.80;99.90
21037;DHT22;10677;50.942;4.028;2024-02-26T02:25:30;7.60;99.90
21037;DHT22;10677;50.942;4.028;2024-02-26T02:27:55;7.60;99.90
21037;DHT22;10677;50.942;4.028;2024-02-26T02:30:24;7.60;99.90
21037;DHT22;10677;50.942;4.028;2024-02-26T02:32:51;7.60;99.90
21037;DHT22;10677;50.942;4.028;2024-02-26T02:35:17;7.60;99.90
21037;DHT22;10677;50.942;4.028;2024-02-26T02:37:42;7.50;99.90
21037;DHT22;10677;50.942;4.028;2024-02-26T02:40:08;7.50;99.90
21037;DHT22;10677;50.942;4.028;2024-02-26T02:42:34;7.50;99.90
21037;DHT22;10677;50.942;4.028;2024-02-26T02:44:59;7.30;99.90
21037;DHT22;10677;50.942;4.028;2024-02-26T02:47:25;7.40;99.90
21037;DHT22;10677;50.942;4.028;2024-02-26T02:49:50;7.50;99.90
21037;DHT22;10677;50.942;4.028;2024-02-26T02:52:16;7.50;99.90
21037;DHT22;10677;50.942;4.028;2024-02-26T02:54:42;7.50;99.90
21037;DHT22;10677;50.942;4.028;2024-02-26T02:57:08;7.40;99.90
21037;DHT22;10677;50.942;4.028;2024-02-26T02:59:34;7.40;99.90
21037;DHT22;10677;50.942;4.028;2024-02-26T03:02:00;7.40;99.90
21037;DHT22;10677;50.942;4.028;2024-02-26T03:04:26;7.30;99.90
21037;DHT22;10677;50.942;4.028;2024-02-26T03:06:52;7.30;99.90
21037;DHT22;10677;50.942;4.028;2024-02-26T03:09:17;7.30;99.90
21037;DHT22;10677;50.942;4.028;2024-02-26T03:11:43;7.30;99.90
21037;DHT22;10677;50.942;4.028;2024-02-26T03:14:08;7.40;99.90
21037;DHT22;10677;50.942;4.028;2024-02-26T03:16:35;7.40;99.90
21037;DHT22;10677;50.942;4.028;2024-02-26T03:19:00;7.30;99.90
21037;DHT22;10677;50.942;4.028;2024-02-26T03:21:27;7.30;99.90
21037;DHT22;10677;50.942;4.028;2024-02-26T03:23:52;7.30;99.90
21037;DHT22;10677;50.942;4.028;2024-02-26T03:26:18;7.30;99.90
21037;DHT22;10677;50.942;4.028;2024-02-26T03:28:44;7.30;99.90
21037;DHT22;10677;50.942;4.028;2024-02-26T03:31:10;7.20;99.90
21037;DHT22;10677;50.942;4.028;2024-02-26T03:33:36;7.20;99.90
21037;DHT22;10677;50.942;4.028;2024-02-26T03:36:02;7.40;99.90
21037;DHT22;10677;50.942;4.028;2024-02-26T03:38:28;7.30;99.90
21037;DHT22;10677;50.942;4.028;2024-02-26T03:40:54;7.30;99.90
21037;DHT22;10677;50.942;4.028;2024-02-26T03:43:20;7.40;99.90
21037;DHT22;10677;50.942;4.028;2024-02-26T03:45:45;7.40;99.90
21037;DHT22;10677;50.942;4.028;2024-02-26T03:48:11;7.30;99.90
21037;DHT22;10677;50.942;4.028;2024-02-26T03:50:37;7.20;99.90
21037;DHT22;10677;50.942;4.028;2024-02-26T03:53:02;7.20;99.90
21037;DHT22;10677;50.942;4.028;2024-02-26T03:55:28;7.20;99.90
21037;DHT22;10677;50.942;4.028;2024-02-26T03:57:54;7.30;99.90
21037;DHT22;10677;50.942;4.028;2024-02-26T04:00:20;7.30;99.90
21037;DHT22;10677;50.942;4.028;2024-02-26T04:02:47;7.30;99.90
21037;DHT22;10677;50.942;4.028;2024-02-26T04:05:13;7.20;99.90
21037;DHT22;10677;50.942;4.028;2024-02-26T04:07:40;7.30;99.90
21037;DHT22;10677;50.942;4.028;2024-02-26T04:10:12;7.30;99.90
21037;DHT22;10677;50.942;4.028;2024-02-26T04:12:42;7.30;99.90
21037;DHT22;10677;50.942;4.028;2024-02-26T04:15:08;7.30;99.90
21037;DHT22;10677;50.942;4.028;2024-02-26T04:17:35;7.20;99.90
21037;DHT22;10677;50.942;4.028;2024-02-26T04:20:01;7.20;99.90
21037;DHT22;10677;50.942;4.028;2024-02-26T04:22:27;7.30;99.90
21037;DHT22;10677;50.942;4.028;2024-02-26T04:24:53;7.30;99.90
21037;DHT22;10677;50.942;4.028;2024-02-26T04:27:18;7.30;99.90
21037;DHT22;10677;50.942;4.028;2024-02-26T04:29:44;7.20;99.90
21037;DHT22;10677;50.942;4.028;2024-02-26T04:32:10;7.20;99.90
21037;DHT22;10677;50.942;4.028;2024-02-26T04:34:35;7.30;99.90
21037;DHT22;10677;50.942;4.028;2024-02-26T04:37:01;7.20;99.90
21037;DHT22;10677;50.942;4.028;2024-02-26T04:39:27;7.30;99.90
21037;DHT22;10677;50.942;4.028;2024-02-26T04:41:52;7.20;99.90
21037;DHT22;10677;50.942;4.028;2024-02-26T04:44:18;7.20;99.90
21037;DHT22;10677;50.942;4.028;2024-02-26T04:46:43;7.10;99.90
21037;DHT22;10677;50.942;4.028;2024-02-26T04:49:09;7.10;99.90
21037;DHT22;10677;50.942;4.028;2024-02-26T04:51:35;7.10;99.90
21037;DHT22;10677;50.942;4.028;2024-02-26T04:54:00;7.20;99.90
21037;DHT22;10677;50.942;4.028;2024-02-26T04:56:26;7.20;99.90
21037;DHT22;10677;50.942;4.028;2024-02-26T04:58:52;7.20;99.90
21037;DHT22;10677;50.942;4.028;2024-02-26T05:01:18;7.30;99.90
21037;DHT22;10677;50.942;4.028;2024-02-26T05:03:44;7.20;99.90
21037;DHT22;10677;50.942;4.028;2024-02-26T05:06:10;7.20;99.90
21037;DHT22;10677;50.942;4.028;2024-02-26T05:08:35;7.20;99.90
21037;DHT22;10677;50.942;4.028;2024-02-26T05:11:02;7.20;99.90
21037;DHT22;10677;50.942;4.028;2024-02-26T05:13:29;7.20;99.90
21037;DHT22;10677;50.942;4.028;2024-02-26T05:15:54;7.30;99.90
21037;DHT22;10677;50.942;4.028;2024-02-26T05:18:21;7.30;99.90
21037;DHT22;10677;50.942;4.028;2024-02-26T05:20:47;7.20;99.90
21037;DHT22;10677;50.942;4.028;2024-02-26T05:23:13;7.30;99.90
21037;DHT22;10677;50.942;4.028;2024-02-26T05:25:39;7.40;99.90
21037;DHT22;10677;50.942;4.028;2024-02-26T05:28:04;7.40;99.90
21037;DHT22;10677;50.942;4.028;2024-02-26T05:30:30;7.40;99.90
21037;DHT22;10677;50.942;4.028;2024-02-26T05:32:56;7.40;99.90
21037;DHT22;10677;50.942;4.028;2024-02-26T05:35:21;7.40;99.90
21037;DHT22;10677;50.942;4.028;2024-02-26T05:37:47;7.40;99.90
21037;DHT22;10677;50.942;4.028;2024-02-26T05:40:13;7.30;99.90
21037;DHT22;10677;50.942;4.028;2024-02-26T05:42:39;7.30;99.90
21037;DHT22;10677;50.942;4.028;2024-02-26T05:45:05;7.30;99.90
21037;DHT22;10677;50.942;4.028;2024-02-26T05:47:34;7.30;99.90
21037;DHT22;10677;50.942;4.028;2024-02-26T05:50:01;7.30;99.90
21037;DHT22;10677;50.942;4.028;2024-02-26T05:52:27;7.40;99.90
21037;DHT22;10677;50.942;4.028;2024-02-26T05:54:54;7.40;99.90
21037;DHT22;10677;50.942;4.028;2024-02-26T05:57:20;7.40;99.90
21037;DHT22;10677;50.942;4.028;2024-02-26T05:59:46;7.30;99.90
21037;DHT22;10677;50.942;4.028;2024-02-26T06:02:11;7.30;99.90
21037;DHT22;10677;50.942;4.028;2024-02-26T06:04:37;7.40;99.90
21037;DHT22;10677;50.942;4.028;2024-02-26T06:07:02;7.50;99.90
21037;DHT22;10677;50.942;4.028;2024-02-26T06:09:28;7.50;99.90
21037;DHT22;10677;50.942;4.028;2024-02-26T06:11:54;7.40;99.90
21037;DHT22;10677;50.942;4.028;2024-02-26T06:14:20;7.40;99.90
21037;DHT22;10677;50.942;4.028;2024-02-26T06:16:46;7.30;99.90
21037;DHT22;10677;50.942;4.028;2024-02-26T06:19:12;7.30;99.90
21037;DHT22;10677;50.942;4.028;2024-02-26T06:21:37;7.30;99.90
21037;DHT22;10677;50.942;4.028;2024-02-26T06:24:03;7.20;99.90
21037;DHT22;10677;50.942;4.028;2024-02-26T06:26:29;7.30;99.90
21037;DHT22;10677;50.942;4.028;2024-02-26T06:28:55;7.20;99.90
21037;DHT22;10677;50.942;4.028;2024-02-26T06:31:24;7.30;99.90
21037;DHT22;10677;50.942;4.028;2024-02-26T06:33:53;7.30;99.90
21037;DHT22;10677;50.942;4.028;2024-02-26T06:36:19;7.40;99.90
21037;DHT22;10677;50.942;4.028;2024-02-26T06:38:45;7.30;99.90
21037;DHT22;10677;50.942;4.028;2024-02-26T06:41:10;7.30;99.90
21037;DHT22;10677;50.942;4.028;2024-02-26T06:43:37;7.40;99.90
21037;DHT22;10677;50.942;4.028;2024-02-26T06:46:02;7.30;99.90
21037;DHT22;10677;50.942;4.028;2024-02-26T06:48:28;7.30;99.90
21037;DHT22;10677;50.942;4.028;2024-02-26T06:50:54;7.40;99.90
21037;DHT22;10677;50.942;4.028;2024-02-26T06:53:19;7.30;99.90
21037;DHT22;10677;50.942;4.028;2024-02-26T06:55:45;7.20;99.90
21037;DHT22;10677;50.942;4.028;2024-02-26T06:58:11;7.30;99.90
21037;DHT22;10677;50.942;4.028;2024-02-26T07:00:36;7.40;99.90
21037;DHT22;10677;50.942;4.028;2024-02-26T07:03:02;7.40;99.90
21037;DHT22;10677;50.942;4.028;2024-02-26T07:05:31;7.30;99.90
21037;DHT22;10677;50.942;4.028;2024-02-26T07:07:57;7.30;99.90
21037;DHT22;10677;50.942;4.028;2024-02-26T07:10:23;7.20;99.90
21037;DHT22;10677;50.942;4.028;2024-02-26T07:12:49;7.20;99.90
21037;DHT22;10677;50.942;4.028;2024-02-26T07:15:15;7.20;99.90
21037;DHT22;10677;50.942;4.028;2024-02-26T07:17:41;7.20;99.90
21037;DHT22;10677;50.942;4.028;2024-02-26T07:20:08;7.20;99.90
21037;DHT22;10677;50.942;4.028;2024-02-26T07:22:34;7.30;99.90
21037;DHT22;10677;50.942;4.028;2024-02-26T07:25:00;7.20;99.90
21037;DHT22;10677;50.942;4.028;2024-02-26T07:27:26;7.20;99.90
21037;DHT22;10677;50.942;4.028;2024-02-26T07:29:54;7.20;99.90
21037;DHT22;10677;50.942;4.028;2024-02-26T07:32:20;7.20;99.90
21037;DHT22;10677;50.942;4.028;2024-02-26T07:34:46;7.20;99.90
21037;DHT22;10677;50.942;4.028;2024-02-26T07:37:12;7.10;99.90
21037;DHT22;10677;50.942;4.028;2024-02-26T07:39:37;7.10;99.90
21037;DHT22;10677;50.942;4.028;2024-02-26T07:42:04;7.10;99.90
21037;DHT22;10677;50.942;4.028;2024-02-26T07:44:30;7.10;99.90
21037;DHT22;10677;50.942;4.028;2024-02-26T07:46:57;7.10;99.90
21037;DHT22;10677;50.942;4.028;2024-02-26T07:49:25;7.10;99.90
21037;DHT22;10677;50.942;4.028;2024-02-26T07:51:52;7.20;99.90
21037;DHT22;10677;50.942;4.028;2024-02-26T07:54:18;7.10;99.90
21037;DHT22;10677;50.942;4.028;2024-02-26T07:56:45;7.20;99.90
21037;DHT22;10677;50.942;4.028;2024-02-26T07:59:10;7.20;99.90
21037;DHT22;10677;50.942;4.028;2024-02-26T08:01:36;7.20;99.90
21037;DHT22;10677;50.942;4.028;2024-02-26T08:04:04;7.10;99.90
21037;DHT22;10677;50.942;4.028;2024-02-26T08:06:30;7.00;99.90
21037;DHT22;10677;50.942;4.028;2024-02-26T08:08:56;7.10;99.90
21037;DHT22;10677;50.942;4.028;2024-02-26T08:11:22;7.10;99.90
21037;DHT22;10677;50.942;4.028;2024-02-26T08:13:48;7.10;99.90
21037;DHT22;10677;50.942;4.028;2024-02-26T08:16:16;7.00;99.90
21037;DHT22;10677;50.942;4.028;2024-02-26T08:18:42;7.00;99.90
21037;DHT22;10677;50.942;4.028;2024-02-26T08:21:08;7.00;99.90
21037;DHT22;10677;50.942;4.028;2024-02-26T08:23:34;7.10;99.90
21037;DHT22;10677;50.942;4.028;2024-02-26T08:26:00;7.10;99.90
21037;DHT22;10677;50.942;4.028;2024-02-26T08:28:25;7.10;99.90
21037;DHT22;10677;50.942;4.028;2024-02-26T08:31:25;7.00;99.90
21037;DHT22;10677;50.942;4.028;2024-02-26T08:33:52;7.00;99.90
21037;DHT22;10677;50.942;4.028;2024-02-26T08:36:18;7.00;99.90
21037;DHT22;10677;50.942;4.028;2024-02-26T08:38:44;7.10;99.90
21037;DHT22;10677;50.942;4.028;2024-02-26T08:41:09;6.90;99.90
21037;DHT22;10677;50.942;4.028;2024-02-26T08:43:35;7.10;99.90
21037;DHT22;10677;50.942;4.028;2024-02-26T08:46:01;7.10;99.90
21037;DHT22;10677;50.942;4.028;2024-02-26T08:48:27;7.10;99.90
21037;DHT22;10677;50.942;4.028;2024-02-26T08:50:52;7.20;99.90
21037;DHT22;10677;50.942;4.028;2024-02-26T08:53:18;7.00;99.90
21037;DHT22;10677;50.942;4.028;2024-02-26T08:55:45;7.10;99.90
21037;DHT22;10677;50.942;4.028;2024-02-26T08:58:11;7.20;99.90
21037;DHT22;10677;50.942;4.028;2024-02-26T09:00:37;7.10;99.90
21037;DHT22;10677;50.942;4.028;2024-02-26T09:03:03;7.10;99.90
21037;DHT22;10677;50.942;4.028;2024-02-26T09:05:29;7.20;99.90
21037;DHT22;10677;50.942;4.028;2024-02-26T09:07:54;7.10;99.90
21037;DHT22;10677;50.942;4.028;2024-02-26T09:10:20;7.20;99.90
21037;DHT22;10677;50.942;4.028;2024-02-26T09:12:46;7.20;99.90
21037;DHT22;10677;50.942;4.028;2024-02-26T09:15:11;7.30;99.90
21037;DHT22;10677;50.942;4.028;2024-02-26T09:17:38;7.20;99.90
21037;DHT22;10677;50.942;4.028;2024-02-26T09:20:04;7.20;99.90
21037;DHT22;10677;50.942;4.028;2024-02-26T09:22:31;7.10;99.90
21037;DHT22;10677;50.942;4.028;2024-02-26T09:24:57;7.10;99.90
21037;DHT22;10677;50.942;4.028;2024-02-26T09:27:22;7.20;99.90
21037;DHT22;10677;50.942;4.028;2024-02-26T09:29:49;7.10;99.90
21037;DHT22;10677;50.942;4.028;2024-02-26T09:32:16;7.10;99.90
21037;DHT22;10677;50.942;4.028;2024-02-26T09:34:43;7.10;99.90
21037;DHT22;10677;50.942;4.028;2024-02-26T09:37:09;7.10;99.90
21037;DHT22;10677;50.942;4.028;2024-02-26T09:39:35;6.90;99.90
21037;DHT22;10677;50.942;4.028;2024-02-26T09:42:06;6.90;99.90
21037;DHT22;10677;50.942;4.028;2024-02-26T09:44:36;7.00;99.90
21037;DHT22;10677;50.942;4.028;2024-02-26T09:47:10;7.00;99.90
21037;DHT22;10677;50.942;4.028;2024-02-26T09:49:42;6.90;99.90
21037;DHT22;10677;50.942;4.028;2024-02-26T09:52:09;7.00;99.90
21037;DHT22;10677;50.942;4.028;2024-02-26T09:54:35;7.00;99.90
21037;DHT22;10677;50.942;4.028;2024-02-26T09:57:06;7.10;99.90
21037;DHT22;10677;50.942;4.028;2024-02-26T09:59:41;7.10;99.90
21037;DHT22;10677;50.942;4.028;2024-02-26T10:02:15;7.10;99.90
21037;DHT22;10677;50.942;4.028;2024-02-26T10:04:42;7.10;99.90
21037;DHT22;10677;50.942;4.028;2024-02-26T10:07:12;7.10;99.90
21037;DHT22;10677;50.942;4.028;2024-02-26T10:09:38;7.20;99.90
21037;DHT22;10677;50.942;4.028;2024-02-26T10:12:05;7.20;99.90
21037;DHT22;10677;50.942;4.028;2024-02-26T10:14:32;7.20;99.90
21037;DHT22;10677;50.942;4.028;2024-02-26T10:16:59;7.00;99.90
21037;DHT22;10677;50.942;4.028;2024-02-26T10:19:30;7.00;99.90
21037;DHT22;10677;50.942;4.028;2024-02-26T10:22:00;6.90;99.90
21037;DHT22;10677;50.942;4.028;2024-02-26T10:24:28;6.80;99.90
21037;DHT22;10677;50.942;4.028;2024-02-26T10:26:57;6.80;99.90
21037;DHT22;10677;50.942;4.028;2024-02-26T10:29:24;6.90;99.90
21037;DHT22;10677;50.942;4.028;2024-02-26T10:31:51;6.90;99.90
21037;DHT22;10677;50.942;4.028;2024-02-26T10:34:17;6.90;99.90
21037;DHT22;10677;50.942;4.028;2024-02-26T10:36:43;6.90;99.90
21037;DHT22;10677;50.942;4.028;2024-02-26T10:39:12;6.90;99.90
21037;DHT22;10677;50.942;4.028;2024-02-26T10:41:42;6.80;99.90
21037;DHT22;10677;50.942;4.028;2024-02-26T10:44:09;6.80;99.90
21037;DHT22;10677;50.942;4.028;2024-02-26T10:46:40;6.80;99.90
21037;DHT22;10677;50.942;4.028;2024-02-26T10:49:13;6.90;99.90
21037;DHT22;10677;50.942;4.028;2024-02-26T10:51:43;6.90;99.90
21037;DHT22;10677;50.942;4.028;2024-02-26T10:54:13;6.90;99.90
21037;DHT22;10677;50.942;4.028;2024-02-26T10:56:42;6.90;99.90
21037;DHT22;10677;50.942;4.028;2024-02-26T10:59:09;7.00;99.90
21037;DHT22;10677;50.942;4.028;2024-02-26T11:01:36;7.00;99.90
21037;DHT22;10677;50.942;4.028;2024-02-26T11:04:06;6.90;99.90
21037;DHT22;10677;50.942;4.028;2024-02-26T11:06:32;6.90;99.90
21037;DHT22;10677;50.942;4.028;2024-02-26T11:09:00;6.90;99.90
21037;DHT22;10677;50.942;4.028;2024-02-26T11:11:26;6.90;99.90
21037;DHT22;10677;50.942;4.028;2024-02-26T11:13:53;6.90;99.90
21037;DHT22;10677;50.942;4.028;2024-02-26T11:16:23;6.80;99.90
21037;DHT22;10677;50.942;4.028;2024-02-26T11:18:49;6.80;99.90
21037;DHT22;10677;50.942;4.028;2024-02-26T11:21:17;6.80;99.90
21037;DHT22;10677;50.942;4.028;2024-02-26T11:23:46;6.80;99.90
21037;DHT22;10677;50.942;4.028;2024-02-26T11:26:14;6.90;99.90
21037;DHT22;10677;50.942;4.028;2024-02-26T11:28:41;6.90;99.90
21037;DHT22;10677;50.942;4.028;2024-02-26T11:31:07;6.90;99.90
21037;DHT22;10677;50.942;4.028;2024-02-26T11:33:34;6.80;99.90
21037;DHT22;10677;50.942;4.028;2024-02-26T11:36:08;6.80;99.90
21037;DHT22;10677;50.942;4.028;2024-02-26T11:38:36;6.80;99.90
21037;DHT22;10677;50.942;4.028;2024-02-26T11:41:01;6.90;99.90
21037;DHT22;10677;50.942;4.028;2024-02-26T11:43:50;6.80;99.90
21037;DHT22;10677;50.942;4.028;2024-02-26T11:46:33;6.90;99.90
21037;DHT22;10677;50.942;4.028;2024-02-26T11:51:58;7.00;99.90
21037;DHT22;10677;50.942;4.028;2024-02-26T11:54:50;6.90;99.90
21037;DHT22;10677;50.942;4.028;2024-02-26T11:57:45;6.90;99.90
21037;DHT22;10677;50.942;4.028;2024-02-26T12:00:12;6.90;99.90
21037;DHT22;10677;50.942;4.028;2024-02-26T12:05:08;6.90;99.90
21037;DHT22;10677;50.942;4.028;2024-02-26T12:07:35;6.90;99.90
21037;DHT22;10677;50.942;4.028;2024-02-26T12:10:22;7.00;99.90
21037;DHT22;10677;50.942;4.028;2024-02-26T12:12:53;6.90;99.90
21037;DHT22;10677;50.942;4.028;2024-02-26T12:15:19;6.80;99.90
21037;DHT22;10677;50.942;4.028;2024-02-26T12:17:49;6.80;99.90
21037;DHT22;10677;50.942;4.028;2024-02-26T12:20:17;6.70;99.90
21037;DHT22;10677;50.942;4.028;2024-02-26T12:22:46;6.70;99.90
21037;DHT22;10677;50.942;4.028;2024-02-26T12:25:13;6.80;99.90
21037;DHT22;10677;50.942;4.028;2024-02-26T12:27:42;6.80;99.90
21037;DHT22;10677;50.942;4.028;2024-02-26T12:30:08;6.70;99.90
21037;DHT22;10677;50.942;4.028;2024-02-26T12:32:35;6.70;99.90
21037;DHT22;10677;50.942;4.028;2024-02-26T12:35:01;6.70;99.90
21037;DHT22;10677;50.942;4.028;2024-02-26T12:37:27;6.80;99.90
21037;DHT22;10677;50.942;4.028;2024-02-26T12:39:53;6.80;99.90
21037;DHT22;10677;50.942;4.028;2024-02-26T12:42:19;6.80;99.90
21037;DHT22;10677;50.942;4.028;2024-02-26T12:44:49;6.90;99.90
21037;DHT22;10677;50.942;4.028;2024-02-26T12:47:15;7.00;99.90
21037;DHT22;10677;50.942;4.028;2024-02-26T12:49:48;7.10;99.90
21037;DHT22;10677;50.942;4.028;2024-02-26T12:52:16;7.10;99.90
21037;DHT22;10677;50.942;4.028;2024-02-26T12:54:42;6.90;99.90
21037;DHT22;10677;50.942;4.028;2024-02-26T12:57:09;6.80;99.90
21037;DHT22;10677;50.942;4.028;2024-02-26T12:59:36;6.70;99.90
21037;DHT22;10677;50.942;4.028;2024-02-26T13:02:02;6.90;99.90
21037;DHT22;10677;50.942;4.028;2024-02-26T13:04:29;6.80;99.90
21037;DHT22;10677;50.942;4.028;2024-02-26T13:06:56;7.00;99.90
21037;DHT22;10677;50.942;4.028;2024-02-26T13:09:26;7.10;99.90
21037;DHT22;10677;50.942;4.028;2024-02-26T13:11:55;7.00;99.90
21037;DHT22;10677;50.942;4.028;2024-02-26T13:14:22;7.00;99.90
21037;DHT22;10677;50.942;4.028;2024-02-26T13:16:57;6.90;99.90
21037;DHT22;10677;50.942;4.028;2024-02-26T13:19:24;7.00;99.90
21037;DHT22;10677;50.942;4.028;2024-02-26T13:21:49;7.00;99.90
21037;DHT22;10677;50.942;4.028;2024-02-26T13:24:15;6.90;99.90
21037;DHT22;10677;50.942;4.028;2024-02-26T13:26:41;7.10;99.90
21037;DHT22;10677;50.942;4.028;2024-02-26T13:29:07;7.10;99.90
21037;DHT22;10677;50.942;4.028;2024-02-26T13:31:39;7.10;99.90
21037;DHT22;10677;50.942;4.028;2024-02-26T13:34:08;7.10;99.90
21037;DHT22;10677;50.942;4.028;2024-02-26T13:36:33;7.00;99.90
21037;DHT22;10677;50.942;4.028;2024-02-26T13:38:59;7.10;99.90
21037;DHT22;10677;50.942;4.028;2024-02-26T13:41:26;7.10;99.90
21037;DHT22;10677;50.942;4.028;2024-02-26T13:43:52;7.20;99.90
21037;DHT22;10677;50.942;4.028;2024-02-26T13:46:18;7.20;99.90
21037;DHT22;10677;50.942;4.028;2024-02-26T13:48:47;7.20;99.90
21037;DHT22;10677;50.942;4.028;2024-02-26T13:51:14;7.10;99.90
21037;DHT22;10677;50.942;4.028;2024-02-26T13:53:40;7.20;99.90
21037;DHT22;10677;50.942;4.028;2024-02-26T13:56:08;7.20;99.90
21037;DHT22;10677;50.942;4.028;2024-02-26T13:58:35;7.20;99.90
21037;DHT22;10677;50.942;4.028;2024-02-26T14:01:01;7.30;99.90
21037;DHT22;10677;50.942;4.028;2024-02-26T14:03:32;7.10;99.90
21037;DHT22;10677;50.942;4.028;2024-02-26T14:05:57;7.00;99.90
21037;DHT22;10677;50.942;4.028;2024-02-26T14:08:24;7.10;99.90
21037;DHT22;10677;50.942;4.028;2024-02-26T14:10:52;7.00;99.90
21037;DHT22;10677;50.942;4.028;2024-02-26T14:13:18;7.10;99.90
21037;DHT22;10677;50.942;4.028;2024-02-26T14:15:44;7.10;99.90
21037;DHT22;10677;50.942;4.028;2024-02-26T14:18:09;7.10;99.90
21037;DHT22;10677;50.942;4.028;2024-02-26T14:20:37;7.10;99.90
21037;DHT22;10677;50.942;4.028;2024-02-26T14:23:04;7.10;99.90
21037;DHT22;10677;50.942;4.028;2024-02-26T14:25:29;7.00;99.90
21037;DHT22;10677;50.942;4.028;2024-02-26T14:27:55;7.00;99.90
21037;DHT22;10677;50.942;4.028;2024-02-26T14:30:22;7.10;99.90
21037;DHT22;10677;50.942;4.028;2024-02-26T14:32:48;7.10;99.90
21037;DHT22;10677;50.942;4.028;2024-02-26T14:35:13;7.00;99.90
21037;DHT22;10677;50.942;4.028;2024-02-26T14:37:39;7.00;99.90
21037;DHT22;10677;50.942;4.028;2024-02-26T14:40:05;7.00;99.90
21037;DHT22;10677;50.942;4.028;2024-02-26T14:42:31;7.00;99.90
21037;DHT22;10677;50.942;4.028;2024-02-26T14:44:57;6.90;99.90
21037;DHT22;10677;50.942;4.028;2024-02-26T14:47:22;6.90;99.90
21037;DHT22;10677;50.942;4.028;2024-02-26T14:49:48;6.90;99.90
21037;DHT22;10677;50.942;4.028;2024-02-26T14:52:14;7.00;99.90
21037;DHT22;10677;50.942;4.028;2024-02-26T14:54:40;6.90;99.90
21037;DHT22;10677;50.942;4.028;2024-02-26T14:57:06;6.80;99.90
21037;DHT22;10677;50.942;4.028;2024-02-26T14:59:33;6.90;99.90
21037;DHT22;10677;50.942;4.028;2024-02-26T15:01:59;6.90;99.90
21037;DHT22;10677;50.942;4.028;2024-02-26T15:04:25;6.90;99.90
21037;DHT22;10677;50.942;4.028;2024-02-26T15:06:51;6.90;99.90
21037;DHT22;10677;50.942;4.028;2024-02-26T15:09:17;6.80;99.90
21037;DHT22;10677;50.942;4.028;2024-02-26T15:11:43;6.90;99.90
21037;DHT22;10677;50.942;4.028;2024-02-26T15:14:10;6.80;99.90
21037;DHT22;10677;50.942;4.028;2024-02-26T15:16:36;6.80;99.90
21037;DHT22;10677;50.942;4.028;2024-02-26T15:19:02;6.80;99.90
21037;DHT22;10677;50.942;4.028;2024-02-26T15:21:29;6.90;99.90
21037;DHT22;10677;50.942;4.028;2024-02-26T15:23:55;6.90;99.90
21037;DHT22;10677;50.942;4.028;2024-02-26T15:26:21;6.90;99.90
21037;DHT22;10677;50.942;4.028;2024-02-26T15:28:47;7.00;99.90
21037;DHT22;10677;50.942;4.028;2024-02-26T15:31:15;6.90;99.90
21037;DHT22;10677;50.942;4.028;2024-02-26T15:33:41;6.90;99.90
21037;DHT22;10677;50.942;4.028;2024-02-26T15:36:08;6.90;99.90
21037;DHT22;10677;50.942;4.028;2024-02-26T15:38:36;7.00;99.90
21037;DHT22;10677;50.942;4.028;2024-02-26T15:41:01;7.00;99.90
21037;DHT22;10677;50.942;4.028;2024-02-26T15:43:27;7.00;99.90
21037;DHT22;10677;50.942;4.028;2024-02-26T15:45:52;6.90;99.90
21037;DHT22;10677;50.942;4.028;2024-02-26T15:48:18;7.00;99.90